ORMM/BSR METAR and TAF weather

Enter ICAO airport designator
Station Type Date Time Source
ORMM METAR 2019/12/09 00:00 UTC NOAA

ORMM 090000Z 13004KT 7000 NSC 09/08 Q1019 NOSIG


Station Type Date Time Source
ORMM Decoded METAR 2019/12/09 00:00 UTC NOAA

Station name not available
Dec 08, 2019 - 07:00 PM EST / 2019.12.09 0000 UTC
Wind: from the SE (130 degrees) at 5 MPH (4 KT):0
Visibility: 4 mile(s):0
Temperature: 48 F (9 C)
Dew Point: 46 F (8 C)
Relative Humidity: 93%
Pressure (altimeter): 30.09 in. Hg (1019 hPa)
ob: ORMM 090000Z 13004KT 7000 NSC 09/08 Q1019 NOSIG
cycle: 0

Station Type Date Time Source
ORMM TAF 2019/12/08 18:12 UTC NOAA

TAF ORMM 081600Z 0818/0918 28008KT 8000 NSC
BECMG 0820/0822 VRB03KT 6000
TEMPO 0902/0905 4000 BR
BECMG 0902/0904 09006KT

Example: see airport list